Time;durP1;ratioP1;P1;durP2;ratioP2;P2;SDS_P1;SDS_P2;PMS_P1;PMS_P2;Temp;Humidity;BMP_temperature;BMP_pressure;BME280_temperature;BME280_humidity;BME280_pressure;Samples;Min_cycle;Max_cycle;Signal;HPM_P1;HPM_P2
2021/04/10 00:00:43;;;;;;;;;;;18.90;99.90;;;;;;5050144;28;19966;-78
2021/04/10 00:03:10;;;;;;;;;;;18.90;99.90;;;;;;5051638;28;20375;-78
2021/04/10 00:05:37;;;;;;;;;;;18.80;99.70;;;;;;5053022;28;19917;-78
2021/04/10 00:08:05;;;;;;;;;;;18.90;99.70;;;;;;5053122;28;19920;-79
2021/04/10 00:10:32;;;;;;;;;;;18.90;99.50;;;;;;5064938;28;19912;-80
2021/04/10 00:13:01;;;;;;;;;;;19.00;99.20;;;;;;5053112;28;19912;-81
2021/04/10 00:15:29;;;;;;;;;;;19.10;99.20;;;;;;5053009;28;19913;-77
2021/04/10 00:17:56;;;;;;;;;;;19.30;99.00;;;;;;5052419;28;20320;-78
2021/04/10 00:20:23;;;;;;;;;;;19.30;97.70;;;;;;5052756;28;19952;-77
2021/04/10 00:22:50;;;;;;;;;;;19.40;97.60;;;;;;5051162;28;19959;-77
2021/04/10 00:25:17;;;;;;;;;;;19.50;96.40;;;;;;5052649;28;19925;-77
2021/04/10 00:27:44;;;;;;;;;;;19.40;95.30;;;;;;5052443;28;19963;-78
2021/04/10 00:30:12;;;;;;;;;;;19.50;95.30;;;;;;5050775;28;20298;-79
2021/04/10 00:32:39;;;;;;;;;;;19.60;96.30;;;;;;5052537;28;20372;-77
2021/04/10 00:35:06;;;;;;;;;;;19.60;95.40;;;;;;5052423;28;19908;-77
2021/04/10 00:37:34;;;;;;;;;;;19.70;94.60;;;;;;5051227;28;19913;-78
2021/04/10 00:40:00;;;;;;;;;;;19.80;93.60;;;;;;5052613;28;20484;-79
2021/04/10 00:42:27;;;;;;;;;;;19.90;92.30;;;;;;5054429;28;19920;-77
2021/04/10 00:44:54;;;;;;;;;;;19.90;92.00;;;;;;5056930;28;19975;-77
2021/04/10 00:47:20;;;;;;;;;;;19.90;91.30;;;;;;5056908;28;20398;-78
2021/04/10 00:49:47;;;;;;;;;;;19.80;92.60;;;;;;5056558;28;20347;-78
2021/04/10 00:52:14;;;;;;;;;;;19.80;91.80;;;;;;5055290;28;19920;-79
2021/04/10 00:54:41;;;;;;;;;;;19.90;92.10;;;;;;5056516;28;20220;-77
2021/04/10 00:57:08;;;;;;;;;;;20.00;91.20;;;;;;5057829;28;19919;-77
2021/04/10 00:59:35;;;;;;;;;;;19.90;91.90;;;;;;5058210;28;21200;-77
2021/04/10 01:02:02;;;;;;;;;;;20.00;91.20;;;;;;5060462;28;19944;-78
2021/04/10 01:04:29;;;;;;;;;;;20.00;92.00;;;;;;5061320;28;19916;-79
2021/04/10 01:06:56;;;;;;;;;;;20.10;91.50;;;;;;5060795;28;19982;-78
2021/04/10 01:09:22;;;;;;;;;;;20.30;91.20;;;;;;5060304;28;19909;-79
2021/04/10 01:11:55;;;;;;;;;;;20.40;90.40;;;;;;5060206;28;19912;-80
2021/04/10 01:14:34;;;;;;;;;;;20.60;89.30;;;;;;5069993;28;19963;-79
2021/04/10 01:17:07;;;;;;;;;;;21.00;88.00;;;;;;5066434;28;19924;-82
2021/04/10 01:19:52;;;;;;;;;;;21.10;87.00;;;;;;5069246;28;19909;-82
2021/04/10 01:22:37;;;;;;;;;;;21.50;86.90;;;;;;5067623;28;19908;-82
2021/04/10 01:25:09;;;;;;;;;;;21.60;84.80;;;;;;5066014;28;19986;-82
2021/04/10 01:27:47;;;;;;;;;;;21.50;85.00;;;;;;5057168;28;19916;-81
2021/04/10 01:30:15;;;;;;;;;;;21.90;83.10;;;;;;5054908;28;19932;-82
2021/04/10 01:33:02;;;;;;;;;;;21.70;84.80;;;;;;5056088;28;19955;-82
2021/04/10 01:35:33;;;;;;;;;;;21.50;84.30;;;;;;5056423;28;19975;-82
2021/04/10 01:38:01;;;;;;;;;;;21.30;85.30;;;;;;5056407;28;19909;-79
2021/04/10 01:40:29;;;;;;;;;;;21.10;84.50;;;;;;5056027;28;20356;-80
2021/04/10 01:42:56;;;;;;;;;;;21.00;85.90;;;;;;5056039;28;19931;-82
2021/04/10 01:45:24;;;;;;;;;;;21.00;86.20;;;;;;5056353;28;19917;-80
2021/04/10 01:47:52;;;;;;;;;;;20.90;87.40;;;;;;5055898;28;19909;-80
2021/04/10 01:50:20;;;;;;;;;;;20.90;86.60;;;;;;5056093;28;19913;-82
2021/04/10 01:52:47;;;;;;;;;;;20.90;87.50;;;;;;5055776;28;19912;-82
2021/04/10 01:55:15;;;;;;;;;;;21.00;88.30;;;;;;5055597;28;19909;-83
2021/04/10 01:57:42;;;;;;;;;;;20.90;87.30;;;;;;5054874;28;19909;-83
2021/04/10 02:00:09;;;;;;;;;;;21.00;90.40;;;;;;5055737;28;19948;-83
2021/04/10 02:02:39;;;;;;;;;;;21.10;88.50;;;;;;5055875;28;19917;-81
2021/04/10 02:05:07;;;;;;;;;;;21.10;86.80;;;;;;5055721;28;19917;-81
2021/04/10 02:07:34;;;;;;;;;;;21.20;88.00;;;;;;5055551;28;20391;-81
2021/04/10 02:10:03;;;;;;;;;;;21.10;87.80;;;;;;5055962;28;20265;-82
2021/04/10 02:12:31;;;;;;;;;;;21.10;86.80;;;;;;5055646;28;19909;-82
2021/04/10 02:14:59;;;;;;;;;;;21.10;90.60;;;;;;5055657;28;20370;-82
2021/04/10 02:17:26;;;;;;;;;;;21.20;90.10;;;;;;5054238;28;19913;-81
2021/04/10 02:19:52;;;;;;;;;;;21.10;86.90;;;;;;5055667;28;19909;-82
2021/04/10 02:22:21;;;;;;;;;;;21.20;87.60;;;;;;5055467;28;19994;-81
2021/04/10 02:24:48;;;;;;;;;;;21.20;88.10;;;;;;5055120;28;20306;-79
2021/04/10 02:27:15;;;;;;;;;;;21.20;85.80;;;;;;5055320;28;20351;-79
2021/04/10 02:29:42;;;;;;;;;;;21.10;87.20;;;;;;5055228;28;19917;-80
2021/04/10 02:32:12;;;;;;;;;;;21.20;86.60;;;;;;5055116;28;20287;-79
2021/04/10 02:35:05;;;;;;;;;;;21.30;86.50;;;;;;5055057;28;19909;-79
2021/04/10 02:37:32;;;;;;;;;;;21.30;89.60;;;;;;5054648;28;19909;-80
2021/04/10 02:40:00;;;;;;;;;;;21.30;86.60;;;;;;5055186;28;19909;-79
2021/04/10 02:42:28;;;;;;;;;;;21.30;88.00;;;;;;5054989;28;19909;-81
2021/04/10 02:44:57;;;;;;;;;;;21.20;85.20;;;;;;5054900;28;19924;-81
2021/04/10 02:47:25;;;;;;;;;;;21.20;85.40;;;;;;5053507;28;19915;-81
2021/04/10 02:49:54;;;;;;;;;;;21.20;86.00;;;;;;5053619;28;19959;-80
2021/04/10 02:52:25;;;;;;;;;;;21.30;86.00;;;;;;5054566;28;19913;-82
2021/04/10 02:54:53;;;;;;;;;;;21.30;86.70;;;;;;5055161;28;19929;-81
2021/04/10 02:57:20;;;;;;;;;;;21.40;85.40;;;;;;5054748;28;19909;-80
2021/04/10 02:59:49;;;;;;;;;;;21.30;84.80;;;;;;5054434;28;19909;-81
2021/04/10 03:02:16;;;;;;;;;;;21.30;85.40;;;;;;5054810;28;20314;-81
2021/04/10 03:04:45;;;;;;;;;;;21.30;84.90;;;;;;5053181;28;19925;-80
2021/04/10 03:07:12;;;;;;;;;;;21.30;85.40;;;;;;5053547;28;19919;-81
2021/04/10 03:09:39;;;;;;;;;;;21.20;85.30;;;;;;5053186;28;19917;-81
2021/04/10 03:12:06;;;;;;;;;;;21.20;89.60;;;;;;5054003;28;20342;-79
2021/04/10 03:14:34;;;;;;;;;;;21.10;85.10;;;;;;5054092;28;19909;-78
2021/04/10 03:17:01;;;;;;;;;;;21.20;83.40;;;;;;5036393;28;19916;-80
2021/04/10 03:19:28;;;;;;;;;;;21.30;84.30;;;;;;5052997;28;20433;-81
2021/04/10 03:21:55;;;;;;;;;;;21.40;83.90;;;;;;5053868;28;19913;-82
2021/04/10 03:24:22;;;;;;;;;;;21.50;81.60;;;;;;5054311;28;19923;-82
2021/04/10 03:26:49;;;;;;;;;;;21.70;81.50;;;;;;5054092;28;19917;-81
2021/04/10 03:29:16;;;;;;;;;;;21.70;82.40;;;;;;5054389;28;19916;-81
2021/04/10 03:31:43;;;;;;;;;;;21.70;81.10;;;;;;5054407;28;19912;-82
2021/04/10 03:34:09;;;;;;;;;;;21.70;80.40;;;;;;5054324;28;19909;-82
2021/04/10 03:36:36;;;;;;;;;;;21.70;79.10;;;;;;5053709;28;20430;-82
2021/04/10 03:39:03;;;;;;;;;;;21.70;79.30;;;;;;5053812;28;20282;-81
2021/04/10 03:41:30;;;;;;;;;;;21.70;77.70;;;;;;5054221;28;19960;-81
2021/04/10 03:43:56;;;;;;;;;;;21.80;76.40;;;;;;5053884;28;19932;-81
2021/04/10 03:46:23;;;;;;;;;;;21.90;75.90;;;;;;5053798;28;19908;-82
2021/04/10 03:48:50;;;;;;;;;;;21.90;80.20;;;;;;5053689;28;19916;-80
2021/04/10 03:51:16;;;;;;;;;;;22.10;77.80;;;;;;5052647;28;19909;-81
2021/04/10 03:53:43;;;;;;;;;;;22.10;78.20;;;;;;5052594;28;19909;-81
2021/04/10 03:56:10;;;;;;;;;;;22.00;73.70;;;;;;5053038;28;20354;-82
2021/04/10 03:58:37;;;;;;;;;;;21.90;74.30;;;;;;5053288;28;20291;-81
2021/04/10 04:01:03;;;;;;;;;;;22.00;75.00;;;;;;5053515;28;19913;-81
2021/04/10 04:03:30;;;;;;;;;;;22.10;77.30;;;;;;5053787;28;19913;-81
2021/04/10 04:05:56;;;;;;;;;;;22.20;75.30;;;;;;5053487;28;19992;-82
2021/04/10 04:08:23;;;;;;;;;;;22.10;74.30;;;;;;5053411;28;19998;-81
2021/04/10 04:10:50;;;;;;;;;;;22.00;74.20;;;;;;5053389;28;19935;-81
2021/04/10 04:13:16;;;;;;;;;;;22.10;74.70;;;;;;5053456;28;19909;-81
2021/04/10 04:15:43;;;;;;;;;;;22.10;74.80;;;;;;5053362;28;19912;-82
2021/04/10 04:18:10;;;;;;;;;;;22.00;74.50;;;;;;5052789;28;19909;-81
2021/04/10 04:20:36;;;;;;;;;;;22.00;72.40;;;;;;5052567;28;20322;-81
2021/04/10 04:23:03;;;;;;;;;;;22.00;76.40;;;;;;5052822;28;19912;-79
2021/04/10 04:25:30;;;;;;;;;;;22.00;73.90;;;;;;5052980;28;19963;-80
2021/04/10 04:27:56;;;;;;;;;;;22.00;74.70;;;;;;5063618;28;19909;-79
2021/04/10 04:30:23;;;;;;;;;;;22.00;73.60;;;;;;5057236;28;19928;-82
2021/04/10 04:32:50;;;;;;;;;;;22.00;72.50;;;;;;5056691;28;19915;-81
2021/04/10 04:35:17;;;;;;;;;;;22.10;70.40;;;;;;5071140;28;19909;-81
2021/04/10 04:37:43;;;;;;;;;;;22.00;71.80;;;;;;5071919;28;19943;-81
2021/04/10 04:40:10;;;;;;;;;;;22.00;71.60;;;;;;5070785;28;19908;-80
2021/04/10 04:42:37;;;;;;;;;;;22.10;72.20;;;;;;5071785;28;19984;-81
2021/04/10 04:45:06;;;;;;;;;;;22.10;72.40;;;;;;5070614;28;20024;-81
2021/04/10 04:47:33;;;;;;;;;;;22.10;73.10;;;;;;5069208;28;19920;-80
2021/04/10 04:50:00;;;;;;;;;;;22.10;73.10;;;;;;5063137;28;19916;-81
2021/04/10 04:52:30;;;;;;;;;;;22.20;71.20;;;;;;5057195;28;19920;-81
2021/04/10 04:54:57;;;;;;;;;;;22.30;70.00;;;;;;5053442;28;20031;-80
2021/04/10 04:57:23;;;;;;;;;;;22.30;70.80;;;;;;5051279;28;20370;-80
2021/04/10 04:59:50;;;;;;;;;;;22.30;71.30;;;;;;5052798;28;19913;-80
2021/04/10 05:02:17;;;;;;;;;;;22.20;70.70;;;;;;5052650;28;19917;-80
2021/04/10 05:04:44;;;;;;;;;;;22.20;70.20;;;;;;5052387;28;19931;-81
2021/04/10 05:07:10;;;;;;;;;;;22.10;72.00;;;;;;5052941;28;19909;-81
2021/04/10 05:09:37;;;;;;;;;;;22.10;71.60;;;;;;5052572;28;19966;-81
2021/04/10 05:12:04;;;;;;;;;;;22.10;72.00;;;;;;5052336;28;19913;-81
2021/04/10 05:14:30;;;;;;;;;;;22.10;70.20;;;;;;5052472;28;19924;-81
2021/04/10 05:16:57;;;;;;;;;;;22.10;70.60;;;;;;5052604;28;19909;-81
2021/04/10 05:19:23;;;;;;;;;;;22.10;70.90;;;;;;5052304;28;19959;-79
2021/04/10 05:21:50;;;;;;;;;;;22.00;72.50;;;;;;5052134;28;19912;-80
2021/04/10 05:24:17;;;;;;;;;;;22.00;71.20;;;;;;5051882;28;19921;-80
2021/04/10 05:26:43;;;;;;;;;;;22.10;71.00;;;;;;5052383;28;20209;-81
2021/04/10 05:29:10;;;;;;;;;;;22.00;70.60;;;;;;5053603;28;19916;-79
2021/04/10 05:31:36;;;;;;;;;;;22.00;72.40;;;;;;5055955;28;19962;-77
2021/04/10 05:34:03;;;;;;;;;;;22.10;71.30;;;;;;5055628;28;19974;-78
2021/04/10 05:36:30;;;;;;;;;;;22.10;70.00;;;;;;5054905;28;20451;-78
2021/04/10 05:38:56;;;;;;;;;;;22.20;70.70;;;;;;5056384;28;19909;-78
2021/04/10 05:41:23;;;;;;;;;;;22.10;70.50;;;;;;5055794;28;19913;-78
2021/04/10 05:43:50;;;;;;;;;;;22.10;70.40;;;;;;5055968;28;19913;-79
2021/04/10 05:46:18;;;;;;;;;;;22.10;71.10;;;;;;5055226;28;20368;-78
2021/04/10 05:48:44;;;;;;;;;;;22.10;70.30;;;;;;5055581;28;19967;-78
2021/04/10 05:51:11;;;;;;;;;;;22.10;74.70;;;;;;5055453;28;19913;-77
2021/04/10 05:53:41;;;;;;;;;;;21.90;72.00;;;;;;5054419;28;20356;-78
2021/04/10 05:56:08;;;;;;;;;;;22.00;71.60;;;;;;5055388;28;19964;-77
2021/04/10 05:58:36;;;;;;;;;;;22.00;71.00;;;;;;5059790;28;19913;-79
2021/04/10 06:01:03;;;;;;;;;;;22.10;71.10;;;;;;5065726;28;20356;-80
2021/04/10 06:03:30;;;;;;;;;;;22.00;72.60;;;;;;5055659;28;19919;-78
2021/04/10 06:05:56;;;;;;;;;;;22.00;71.80;;;;;;5053866;28;19917;-78
2021/04/10 06:08:23;;;;;;;;;;;21.90;72.20;;;;;;5055517;28;19913;-78
2021/04/10 06:10:50;;;;;;;;;;;21.90;70.50;;;;;;5055171;28;19919;-79
2021/04/10 06:13:19;;;;;;;;;;;21.80;69.80;;;;;;5055567;28;19915;-78
2021/04/10 06:15:46;;;;;;;;;;;21.80;71.10;;;;;;5055236;28;19913;-77
2021/04/10 06:18:13;;;;;;;;;;;21.70;72.30;;;;;;5055361;28;19909;-81
2021/04/10 06:20:39;;;;;;;;;;;21.70;71.10;;;;;;5054602;28;20335;-77
2021/04/10 06:23:06;;;;;;;;;;;21.60;70.80;;;;;;5055044;28;20347;-79
2021/04/10 06:25:33;;;;;;;;;;;21.60;72.10;;;;;;5053990;28;20008;-78
2021/04/10 06:28:03;;;;;;;;;;;21.60;71.60;;;;;;5053662;28;20295;-79
2021/04/10 06:30:30;;;;;;;;;;;21.50;70.50;;;;;;5054512;28;19960;-79
2021/04/10 06:32:57;;;;;;;;;;;21.40;70.70;;;;;;5055114;28;20406;-80
2021/04/10 06:35:23;;;;;;;;;;;21.40;71.60;;;;;;5053671;28;19969;-79
2021/04/10 06:37:51;;;;;;;;;;;21.40;71.60;;;;;;5054512;28;19956;-79
2021/04/10 06:40:17;;;;;;;;;;;21.30;72.80;;;;;;5052549;28;19917;-77
2021/04/10 06:42:44;;;;;;;;;;;21.30;72.60;;;;;;5054404;28;19913;-78
2021/04/10 06:45:11;;;;;;;;;;;21.30;73.70;;;;;;5054790;28;19917;-79
2021/04/10 06:47:38;;;;;;;;;;;21.30;73.10;;;;;;5052802;28;20379;-79
2021/04/10 06:50:05;;;;;;;;;;;21.30;72.90;;;;;;5054358;28;19913;-80
2021/04/10 06:52:39;;;;;;;;;;;21.20;73.90;;;;;;5053978;28;19967;-78
2021/04/10 06:55:10;;;;;;;;;;;21.20;72.80;;;;;;5053241;28;19919;-78
2021/04/10 06:57:43;;;;;;;;;;;21.10;72.00;;;;;;5054892;28;20279;-79
2021/04/10 07:00:11;;;;;;;;;;;21.00;72.50;;;;;;5054555;28;19968;-79
2021/04/10 07:02:38;;;;;;;;;;;21.00;71.60;;;;;;5054178;28;19913;-79
2021/04/10 07:05:07;;;;;;;;;;;20.90;72.90;;;;;;5054405;28;19921;-79
2021/04/10 07:07:34;;;;;;;;;;;20.80;73.30;;;;;;5053781;28;20279;-79
2021/04/10 07:10:04;;;;;;;;;;;20.80;73.10;;;;;;5052819;28;20375;-79
2021/04/10 07:12:30;;;;;;;;;;;20.70;73.60;;;;;;5052373;28;19909;-78
2021/04/10 07:14:57;;;;;;;;;;;20.60;73.80;;;;;;5053895;28;19919;-79
2021/04/10 07:17:27;;;;;;;;;;;20.60;74.50;;;;;;5054486;28;19909;-77
2021/04/10 07:19:53;;;;;;;;;;;20.60;74.20;;;;;;5054042;28;20280;-78
2021/04/10 07:22:20;;;;;;;;;;;20.50;76.10;;;;;;5053034;28;19916;-79
2021/04/10 07:24:48;;;;;;;;;;;20.50;75.30;;;;;;5053671;28;20436;-79
2021/04/10 07:27:16;;;;;;;;;;;20.40;75.70;;;;;;5054092;28;19952;-79
2021/04/10 07:29:52;;;;;;;;;;;20.40;75.30;;;;;;5053774;28;20011;-78
2021/04/10 07:32:22;;;;;;;;;;;20.30;75.50;;;;;;5054247;28;19909;-80
2021/04/10 07:34:49;;;;;;;;;;;20.30;76.20;;;;;;5053830;28;20004;-80
2021/04/10 07:37:36;;;;;;;;;;;20.30;76.30;;;;;;5053756;28;20008;-83
2021/04/10 07:40:13;;;;;;;;;;;20.20;76.70;;;;;;5049789;28;20377;-79
2021/04/10 07:42:40;;;;;;;;;;;20.10;76.60;;;;;;5053699;28;20352;-79
2021/04/10 07:45:22;;;;;;;;;;;20.10;76.00;;;;;;5053434;28;19975;-77
2021/04/10 07:47:49;;;;;;;;;;;20.00;76.50;;;;;;5052941;28;19917;-79
2021/04/10 07:50:28;;;;;;;;;;;19.90;76.40;;;;;;5053620;28;19920;-79
2021/04/10 07:52:55;;;;;;;;;;;19.90;76.30;;;;;;5052226;28;19935;-79
2021/04/10 07:55:41;;;;;;;;;;;19.80;76.40;;;;;;5053425;28;19913;-79
2021/04/10 07:58:20;;;;;;;;;;;19.80;76.80;;;;;;5053188;28;19917;-79
2021/04/10 08:00:47;;;;;;;;;;;19.70;77.30;;;;;;5051691;28;19921;-79
2021/04/10 08:03:23;;;;;;;;;;;19.70;77.20;;;;;;5053558;28;19909;-79
2021/04/10 08:05:50;;;;;;;;;;;19.60;76.80;;;;;;5052039;28;20019;-78
2021/04/10 08:08:23;;;;;;;;;;;19.60;78.00;;;;;;5052971;28;19913;-79
2021/04/10 08:11:06;;;;;;;;;;;19.50;77.60;;;;;;5048437;28;19943;-80
2021/04/10 08:13:33;;;;;;;;;;;19.50;78.10;;;;;;5052711;28;20371;-78
2021/04/10 08:16:16;;;;;;;;;;;19.50;78.40;;;;;;5052890;28;19956;-79
2021/04/10 08:18:47;;;;;;;;;;;19.40;78.70;;;;;;5052297;28;19913;-78
2021/04/10 08:21:18;;;;;;;;;;;19.40;78.50;;;;;;5051394;28;19909;-79
2021/04/10 08:23:44;;;;;;;;;;;19.30;78.30;;;;;;5052714;28;20301;-78
2021/04/10 08:26:16;;;;;;;;;;;19.20;78.90;;;;;;5052457;28;20011;-80
2021/04/10 08:28:43;;;;;;;;;;;19.10;79.10;;;;;;5051327;28;19994;-80
2021/04/10 08:31:10;;;;;;;;;;;19.10;78.80;;;;;;5052039;28;20382;-78
2021/04/10 08:33:37;;;;;;;;;;;19.00;79.40;;;;;;5052209;28;20011;-80
2021/04/10 08:36:10;;;;;;;;;;;19.00;79.00;;;;;;5052333;28;19913;-80
2021/04/10 08:38:39;;;;;;;;;;;19.00;79.40;;;;;;5051831;28;19913;-79
2021/04/10 08:41:07;;;;;;;;;;;19.00;79.80;;;;;;5051923;28;19913;-80
2021/04/10 08:43:38;;;;;;;;;;;19.00;79.90;;;;;;5052126;28;20303;-79
2021/04/10 08:46:06;;;;;;;;;;;18.90;80.20;;;;;;5052184;28;19940;-79
2021/04/10 08:48:34;;;;;;;;;;;18.90;80.20;;;;;;5051480;28;19983;-79
2021/04/10 08:51:03;;;;;;;;;;;18.90;80.70;;;;;;5052178;28;20008;-79
2021/04/10 08:53:40;;;;;;;;;;;18.90;80.70;;;;;;5051914;28;19912;-78
2021/04/10 08:56:08;;;;;;;;;;;18.90;81.10;;;;;;5052007;28;19913;-79
2021/04/10 08:58:35;;;;;;;;;;;18.80;80.60;;;;;;5051442;28;19917;-79
2021/04/10 09:01:06;;;;;;;;;;;18.80;81.00;;;;;;5050881;28;19912;-78
2021/04/10 09:03:48;;;;;;;;;;;18.80;81.40;;;;;;5054104;28;20026;-78
2021/04/10 09:06:15;;;;;;;;;;;18.70;81.30;;;;;;5055156;28;19924;-79
2021/04/10 09:08:42;;;;;;;;;;;18.70;81.60;;;;;;5055826;28;19943;-80
2021/04/10 09:11:18;;;;;;;;;;;18.60;81.70;;;;;;5055288;28;19920;-78
2021/04/10 09:13:46;;;;;;;;;;;18.60;83.30;;;;;;5055694;28;19996;-78
2021/04/10 09:16:25;;;;;;;;;;;18.60;83.10;;;;;;5055728;28;19913;-78
2021/04/10 09:18:56;;;;;;;;;;;18.60;83.00;;;;;;5046113;28;20375;-79
2021/04/10 09:21:41;;;;;;;;;;;18.60;82.60;;;;;;5046018;28;19956;-78
2021/04/10 09:24:26;;;;;;;;;;;18.60;82.60;;;;;;5054643;28;19943;-78
2021/04/10 09:27:03;;;;;;;;;;;18.60;83.00;;;;;;5057591;28;19920;-77
2021/04/10 09:29:31;;;;;;;;;;;18.50;82.60;;;;;;5052183;28;19925;-80
2021/04/10 09:31:58;;;;;;;;;;;18.50;82.80;;;;;;5056094;28;19909;-79
2021/04/10 09:34:48;;;;;;;;;;;18.50;84.20;;;;;;5055539;28;19919;-78
2021/04/10 09:37:21;;;;;;;;;;;18.50;82.80;;;;;;5054514;28;19921;-79
2021/04/10 09:39:51;;;;;;;;;;;18.40;82.90;;;;;;5055374;28;19921;-78
2021/04/10 09:45:12;;;;;;;;;;;18.40;83.30;;;;;;5055107;28;20352;-77
2021/04/10 09:48:01;;;;;;;;;;;18.30;82.70;;;;;;5055873;28;20275;-78
2021/04/10 09:50:30;;;;;;;;;;;18.30;81.00;;;;;;5055406;28;19912;-77
2021/04/10 09:52:56;;;;;;;;;;;18.30;81.50;;;;;;5055680;28;19931;-78
2021/04/10 09:55:24;;;;;;;;;;;18.30;82.80;;;;;;5055987;28;20394;-78
2021/04/10 09:57:54;;;;;;;;;;;18.30;82.30;;;;;;5071062;28;19920;-77
2021/04/10 10:00:28;;;;;;;;;;;18.30;82.30;;;;;;5054949;28;20228;-77
2021/04/10 10:02:55;;;;;;;;;;;18.20;82.40;;;;;;5053653;28;19919;-77
2021/04/10 10:05:22;;;;;;;;;;;18.20;83.90;;;;;;5055223;28;20051;-76
2021/04/10 10:07:50;;;;;;;;;;;18.20;82.40;;;;;;5055533;28;19909;-77
2021/04/10 10:10:17;;;;;;;;;;;18.10;82.00;;;;;;5054235;28;20284;-77
2021/04/10 10:12:44;;;;;;;;;;;18.00;82.40;;;;;;5054971;28;19924;-78
2021/04/10 10:15:23;;;;;;;;;;;18.00;82.00;;;;;;5054572;28;19909;-77
2021/04/10 10:17:50;;;;;;;;;;;17.90;82.10;;;;;;5055570;28;20020;-77
2021/04/10 10:20:17;;;;;;;;;;;17.80;82.80;;;;;;5055282;28;19908;-79
2021/04/10 10:22:44;;;;;;;;;;;17.80;83.60;;;;;;5054108;28;19913;-78
2021/04/10 10:25:11;;;;;;;;;;;17.70;83.50;;;;;;5054092;28;19939;-79
2021/04/10 10:27:40;;;;;;;;;;;17.70;83.00;;;;;;5055707;28;20007;-77
2021/04/10 10:30:18;;;;;;;;;;;17.60;82.30;;;;;;5054685;28;20287;-79
2021/04/10 10:32:45;;;;;;;;;;;17.60;83.00;;;;;;5055036;28;19908;-79
2021/04/10 10:35:13;;;;;;;;;;;17.60;82.70;;;;;;5055017;28;19916;-78
2021/04/10 10:37:40;;;;;;;;;;;17.50;83.40;;;;;;5055126;28;19948;-79
2021/04/10 10:40:07;;;;;;;;;;;17.60;84.10;;;;;;5055098;28;19908;-78
2021/04/10 10:42:33;;;;;;;;;;;17.50;83.50;;;;;;5054990;28;19908;-78
2021/04/10 10:45:00;;;;;;;;;;;17.50;84.10;;;;;;5054832;28;20008;-78
2021/04/10 10:47:27;;;;;;;;;;;17.50;83.30;;;;;;5054961;28;20360;-78
2021/04/10 10:49:54;;;;;;;;;;;17.40;84.60;;;;;;5054814;28;19909;-79
2021/04/10 10:52:20;;;;;;;;;;;17.40;83.10;;;;;;5054779;28;20260;-79
2021/04/10 10:54:48;;;;;;;;;;;17.40;84.40;;;;;;5054522;28;20398;-79
2021/04/10 10:57:16;;;;;;;;;;;17.40;84.30;;;;;;5054696;28;19912;-79
2021/04/10 10:59:43;;;;;;;;;;;17.30;84.50;;;;;;5054318;28;19917;-77
2021/04/10 11:02:10;;;;;;;;;;;17.40;84.30;;;;;;5054535;28;19962;-78
2021/04/10 11:04:38;;;;;;;;;;;17.30;84.40;;;;;;5053655;28;20024;-80
2021/04/10 11:07:06;;;;;;;;;;;17.30;84.70;;;;;;5054549;28;19909;-79
2021/04/10 11:09:34;;;;;;;;;;;17.20;85.20;;;;;;5054214;28;19913;-79
2021/04/10 11:12:05;;;;;;;;;;;17.20;84.20;;;;;;5054398;28;19908;-78
2021/04/10 11:14:32;;;;;;;;;;;17.20;85.30;;;;;;5054197;28;19909;-79
2021/04/10 11:17:00;;;;;;;;;;;17.20;84.30;;;;;;5054347;28;19912;-79
2021/04/10 11:19:30;;;;;;;;;;;17.20;85.30;;;;;;5054107;28;20015;-79
2021/04/10 11:21:57;;;;;;;;;;;17.20;85.50;;;;;;5054046;28;20291;-79
2021/04/10 11:24:44;;;;;;;;;;;17.20;86.10;;;;;;5053803;28;19927;-79
2021/04/10 11:27:14;;;;;;;;;;;17.30;85.80;;;;;;5053897;28;19908;-78
2021/04/10 11:29:54;;;;;;;;;;;17.30;85.50;;;;;;5053791;28;20019;-78
2021/04/10 11:32:21;;;;;;;;;;;17.20;84.50;;;;;;5054144;28;20539;-76
2021/04/10 11:34:48;;;;;;;;;;;17.30;85.50;;;;;;5053665;28;19908;-78
2021/04/10 11:37:19;;;;;;;;;;;17.20;85.60;;;;;;5053854;28;19913;-79
2021/04/10 11:39:58;;;;;;;;;;;17.20;85.20;;;;;;5053681;28;19944;-78
2021/04/10 11:42:37;;;;;;;;;;;17.30;85.20;;;;;;5052599;28;19940;-78
2021/04/10 11:45:05;;;;;;;;;;;17.20;87.40;;;;;;5053520;28;19952;-78
2021/04/10 11:47:34;;;;;;;;;;;17.20;85.20;;;;;;5053427;28;19920;-78
2021/04/10 11:50:15;;;;;;;;;;;17.20;85.50;;;;;;5053298;28;19909;-78
2021/04/10 11:52:42;;;;;;;;;;;17.10;85.00;;;;;;5053477;28;19913;-78
2021/04/10 11:55:11;;;;;;;;;;;17.10;86.40;;;;;;5053523;28;20379;-78
2021/04/10 11:57:39;;;;;;;;;;;17.10;85.40;;;;;;5053448;28;19909;-78
2021/04/10 12:00:13;;;;;;;;;;;17.10;87.20;;;;;;5053347;28;19924;-78
2021/04/10 12:02:41;;;;;;;;;;;17.10;87.10;;;;;;5053019;28;19909;-80
2021/04/10 12:05:26;;;;;;;;;;;17.10;86.50;;;;;;5053114;28;19986;-78
2021/04/10 12:08:03;;;;;;;;;;;17.20;88.10;;;;;;5052096;28;19908;-78
2021/04/10 12:10:30;;;;;;;;;;;17.10;87.20;;;;;;5052905;28;19912;-77
2021/04/10 12:12:56;;;;;;;;;;;17.10;86.80;;;;;;5053393;28;20318;-78
2021/04/10 12:15:27;;;;;;;;;;;17.20;87.80;;;;;;5053315;28;19909;-78
2021/04/10 12:17:54;;;;;;;;;;;17.10;85.50;;;;;;5053289;28;19908;-78
2021/04/10 12:20:21;;;;;;;;;;;17.10;86.50;;;;;;5053316;28;20008;-79
2021/04/10 12:22:48;;;;;;;;;;;17.10;86.60;;;;;;5051636;28;19913;-75
2021/04/10 12:25:15;;;;;;;;;;;17.00;86.00;;;;;;5052990;28;20252;-77
2021/04/10 12:27:42;;;;;;;;;;;16.90;85.80;;;;;;5052971;28;19909;-76
2021/04/10 12:30:09;;;;;;;;;;;16.90;85.80;;;;;;5053001;28;19925;-78
2021/04/10 12:32:35;;;;;;;;;;;16.90;86.60;;;;;;5052577;28;19909;-77
2021/04/10 12:35:02;;;;;;;;;;;17.00;86.60;;;;;;5045106;28;19913;-77
2021/04/10 12:37:29;;;;;;;;;;;17.00;86.60;;;;;;5050778;28;19963;-76
2021/04/10 12:39:56;;;;;;;;;;;17.00;86.30;;;;;;5053222;28;19920;-76
2021/04/10 12:42:23;;;;;;;;;;;17.00;85.40;;;;;;5051377;28;19917;-75
2021/04/10 12:44:49;;;;;;;;;;;17.00;87.50;;;;;;5051462;28;19927;-75
2021/04/10 12:47:20;;;;;;;;;;;17.10;86.30;;;;;;5050913;28;19915;-78
2021/04/10 12:49:47;;;;;;;;;;;17.20;85.50;;;;;;5051377;28;19920;-76
2021/04/10 12:52:14;;;;;;;;;;;17.10;85.40;;;;;;5051680;28;19952;-76
2021/04/10 12:54:41;;;;;;;;;;;17.20;85.80;;;;;;5051740;28;19909;-75
2021/04/10 12:57:08;;;;;;;;;;;17.20;86.00;;;;;;5051951;28;19932;-78
2021/04/10 12:59:35;;;;;;;;;;;17.20;84.10;;;;;;5051463;28;20312;-78
2021/04/10 13:02:02;;;;;;;;;;;17.20;83.90;;;;;;5051870;28;19944;-75
2021/04/10 13:04:29;;;;;;;;;;;17.20;84.10;;;;;;5052457;28;20351;-77
2021/04/10 13:06:56;;;;;;;;;;;17.20;84.10;;;;;;5051126;28;19912;-77
2021/04/10 13:09:23;;;;;;;;;;;17.20;86.00;;;;;;5053139;28;19909;-79
2021/04/10 13:11:50;;;;;;;;;;;17.20;85.10;;;;;;5050879;28;20336;-77
2021/04/10 13:14:17;;;;;;;;;;;17.20;83.50;;;;;;5051550;28;19913;-76
2021/04/10 13:16:44;;;;;;;;;;;17.10;83.20;;;;;;5052129;28;20375;-79
2021/04/10 13:19:10;;;;;;;;;;;17.20;83.40;;;;;;5052578;28;19909;-76
2021/04/10 13:21:37;;;;;;;;;;;17.10;85.60;;;;;;5055027;28;19912;-75
2021/04/10 13:24:04;;;;;;;;;;;17.20;86.00;;;;;;5054737;28;19913;-76
2021/04/10 13:26:31;;;;;;;;;;;17.20;85.70;;;;;;5052265;28;19913;-76
2021/04/10 13:28:57;;;;;;;;;;;17.20;85.50;;;;;;5050624;28;19909;-77
2021/04/10 13:31:29;;;;;;;;;;;17.20;86.90;;;;;;5051341;28;19944;-76
2021/04/10 13:33:55;;;;;;;;;;;17.20;87.20;;;;;;5049960;28;19924;-78
2021/04/10 13:36:22;;;;;;;;;;;17.20;90.50;;;;;;5051932;28;19909;-78
2021/04/10 13:38:49;;;;;;;;;;;17.20;87.20;;;;;;5050301;28;19971;-78
2021/04/10 13:41:17;;;;;;;;;;;17.00;87.30;;;;;;5051527;28;19974;-77
2021/04/10 13:43:44;;;;;;;;;;;17.00;89.50;;;;;;5051643;28;20379;-76
2021/04/10 13:46:16;;;;;;;;;;;17.00;89.20;;;;;;5051615;28;20007;-79
2021/04/10 13:48:44;;;;;;;;;;;16.90;88.40;;;;;;5050995;28;20322;-79
2021/04/10 13:51:16;;;;;;;;;;;17.00;89.00;;;;;;5054264;28;20008;-78
2021/04/10 13:53:43;;;;;;;;;;;16.90;87.20;;;;;;5054291;28;19917;-76
2021/04/10 13:56:10;;;;;;;;;;;17.00;86.40;;;;;;5055140;28;19936;-76
2021/04/10 13:58:37;;;;;;;;;;;17.00;88.00;;;;;;5053077;28;19913;-75
2021/04/10 14:01:04;;;;;;;;;;;17.00;87.50;;;;;;5054441;28;19917;-75
2021/04/10 14:03:31;;;;;;;;;;;17.00;83.60;;;;;;5054405;28;19909;-76
2021/04/10 14:05:58;;;;;;;;;;;17.00;86.80;;;;;;5052814;28;19970;-77
2021/04/10 14:08:25;;;;;;;;;;;17.10;84.60;;;;;;5054211;28;20341;-76
2021/04/10 14:10:52;;;;;;;;;;;17.00;83.90;;;;;;5054420;28;19913;-76
2021/04/10 14:13:20;;;;;;;;;;;17.00;84.30;;;;;;5054493;28;19913;-77
2021/04/10 14:15:48;;;;;;;;;;;16.90;84.50;;;;;;5053551;28;19963;-78
2021/04/10 14:18:21;;;;;;;;;;;16.80;84.30;;;;;;5053556;28;20386;-77
2021/04/10 14:20:48;;;;;;;;;;;16.90;85.70;;;;;;5053281;28;19948;-74
2021/04/10 14:23:17;;;;;;;;;;;16.90;86.50;;;;;;5054779;28;19999;-76
2021/04/10 14:25:44;;;;;;;;;;;16.90;86.50;;;;;;5053803;28;19924;-76
2021/04/10 14:28:11;;;;;;;;;;;17.00;85.90;;;;;;5054268;28;19920;-75